Time;durP1;ratioP1;P1;durP2;ratioP2;P2;SDS_P1;SDS_P2;PMS_P1;PMS_P2;Temp;Humidity;BMP_temperature;BMP_pressure;BME280_temperature;BME280_humidity;BME280_pressure;Samples;Min_cycle;Max_cycle;Signal;HPM_P1;HPM_P2
2020/01/21 00:02:44;;;;;;;14;8.5;;;;;;;;;;;;;
2020/01/21 00:07:19;;;;;;;15.4;10.1;;;;;;;;;;;;;
2020/01/21 00:09:39;;;;;;;15.8;10.5;;;;;;;;;;;;;
2020/01/21 00:12:04;;;;;;;14.3;10.4;;;;;;;;;;;;;
2020/01/21 00:14:29;;;;;;;17.3;9.5;;;;;;;;;;;;;
2020/01/21 00:16:54;;;;;;;15.8;9.9;;;;;;;;;;;;;
2020/01/21 00:19:19;;;;;;;15.5;9.4;;;;;;;;;;;;;
2020/01/21 00:21:44;;;;;;;15.5;9;;;;;;;;;;;;;
2020/01/21 00:24:09;;;;;;;17;8.8;;;;;;;;;;;;;
2020/01/21 00:26:35;;;;;;;16.9;9.3;;;;;;;;;;;;;
2020/01/21 00:29:00;;;;;;;13.9;8.2;;;;;;;;;;;;;
2020/01/21 00:31:25;;;;;;;14.1;8.4;;;;;;;;;;;;;
2020/01/21 00:33:50;;;;;;;12.6;7.1;;;;;;;;;;;;;
2020/01/21 00:36:15;;;;;;;15.4;8.1;;;;;;;;;;;;;
2020/01/21 00:38:40;;;;;;;13.2;7.7;;;;;;;;;;;;;
2020/01/21 00:41:05;;;;;;;11.8;7.1;;;;;;;;;;;;;
2020/01/21 00:43:30;;;;;;;12.7;7.1;;;;;;;;;;;;;
2020/01/21 00:45:55;;;;;;;13.3;7.6;;;;;;;;;;;;;
2020/01/21 00:48:21;;;;;;;14;7.9;;;;;;;;;;;;;
2020/01/21 00:50:46;;;;;;;15.3;7.9;;;;;;;;;;;;;
2020/01/21 00:53:11;;;;;;;12;7;;;;;;;;;;;;;
2020/01/21 00:55:36;;;;;;;14.7;7.6;;;;;;;;;;;;;
2020/01/21 00:58:01;;;;;;;13.1;7.6;;;;;;;;;;;;;
2020/01/21 01:00:26;;;;;;;13.8;7.6;;;;;;;;;;;;;
2020/01/21 01:02:51;;;;;;;17.2;9.4;;;;;;;;;;;;;
2020/01/21 01:05:16;;;;;;;15.2;8.3;;;;;;;;;;;;;
2020/01/21 01:07:41;;;;;;;17.5;9;;;;;;;;;;;;;
2020/01/21 01:10:07;;;;;;;18.6;9.3;;;;;;;;;;;;;
2020/01/21 01:12:32;;;;;;;18;9.5;;;;;;;;;;;;;
2020/01/21 01:14:57;;;;;;;17.4;9.2;;;;;;;;;;;;;
2020/01/21 01:17:22;;;;;;;14.6;7.9;;;;;;;;;;;;;
2020/01/21 01:20:06;;;;;;;14.3;8;;;;;;;;;;;;;
2020/01/21 01:24:37;;;;;;;15.7;8.6;;;;;;;;;;;;;
2020/01/21 01:27:02;;;;;;;13.2;7.5;;;;;;;;;;;;;
2020/01/21 01:29:27;;;;;;;13.1;7.4;;;;;;;;;;;;;
2020/01/21 01:31:53;;;;;;;15.1;8;;;;;;;;;;;;;
2020/01/21 01:34:18;;;;;;;16.2;8.6;;;;;;;;;;;;;
2020/01/21 01:36:43;;;;;;;15.9;9.1;;;;;;;;;;;;;
2020/01/21 01:39:19;;;;;;;17.5;8.9;;;;;;;;;;;;;
2020/01/21 01:41:45;;;;;;;16;8.6;;;;;;;;;;;;;
2020/01/21 01:44:10;;;;;;;17.9;9.3;;;;;;;;;;;;;
2020/01/21 01:46:35;;;;;;;16.6;8.9;;;;;;;;;;;;;
2020/01/21 01:49:00;;;;;;;17.4;9;;;;;;;;;;;;;
2020/01/21 01:51:25;;;;;;;18.5;9;;;;;;;;;;;;;
2020/01/21 01:53:51;;;;;;;14.2;7.9;;;;;;;;;;;;;
2020/01/21 01:56:16;;;;;;;17;7.9;;;;;;;;;;;;;
2020/01/21 01:59:02;;;;;;;15.5;8.1;;;;;;;;;;;;;
2020/01/21 02:01:08;;;;;;;13.6;7.3;;;;;;;;;;;;;
2020/01/21 02:08:39;;;;;;;14.1;6.7;;;;;;;;;;;;;
2020/01/21 02:10:58;;;;;;;11;6.3;;;;;;;;;;;;;
2020/01/21 02:13:42;;;;;;;12.5;7;;;;;;;;;;;;;
2020/01/21 02:15:51;;;;;;;10.6;6.3;;;;;;;;;;;;;
2020/01/21 02:18:02;;;;;;;12.6;6.3;;;;;;;;;;;;;
2020/01/21 02:20:28;;;;;;;10.3;6.1;;;;;;;;;;;;;
2020/01/21 02:22:53;;;;;;;12;6.7;;;;;;;;;;;;;
2020/01/21 02:25:18;;;;;;;13.9;7;;;;;;;;;;;;;
2020/01/21 02:27:52;;;;;;;11.8;6.5;;;;;;;;;;;;;
2020/01/21 02:30:17;;;;;;;13;6.3;;;;;;;;;;;;;
2020/01/21 02:32:42;;;;;;;11.3;6.3;;;;;;;;;;;;;
2020/01/21 02:35:07;;;;;;;11.9;6.6;;;;;;;;;;;;;
2020/01/21 02:37:32;;;;;;;12.1;6.5;;;;;;;;;;;;;
2020/01/21 02:39:57;;;;;;;11.3;6;;;;;;;;;;;;;
2020/01/21 02:42:24;;;;;;;10.3;6;;;;;;;;;;;;;
2020/01/21 02:44:48;;;;;;;11.2;5.4;;;;;;;;;;;;;
2020/01/21 02:47:55;;;;;;;11.5;5.9;;;;;;;;;;;;;
2020/01/21 02:50:11;;;;;;;10.3;5.8;;;;;;;;;;;;;
2020/01/21 02:52:03;;;;;;;10.4;5.6;;;;;;;;;;;;;
2020/01/21 02:54:28;;;;;;;8;5.3;;;;;;;;;;;;;
2020/01/21 02:56:53;;;;;;;12.8;6.1;;;;;;;;;;;;;
2020/01/21 02:59:19;;;;;;;14.7;7.3;;;;;;;;;;;;;
2020/01/21 03:01:44;;;;;;;9.3;5;;;;;;;;;;;;;
2020/01/21 03:04:09;;;;;;;10.4;5.2;;;;;;;;;;;;;
2020/01/21 03:06:34;;;;;;;10.6;5.3;;;;;;;;;;;;;
2020/01/21 03:08:59;;;;;;;10.1;4.9;;;;;;;;;;;;;
2020/01/21 03:11:24;;;;;;;7.7;4.6;;;;;;;;;;;;;
2020/01/21 03:13:50;;;;;;;10.2;4.9;;;;;;;;;;;;;
2020/01/21 03:16:15;;;;;;;9.1;4.9;;;;;;;;;;;;;
2020/01/21 03:18:40;;;;;;;8.1;4.9;;;;;;;;;;;;;
2020/01/21 03:21:05;;;;;;;8.2;4.6;;;;;;;;;;;;;
2020/01/21 03:23:30;;;;;;;7.3;4.2;;;;;;;;;;;;;
2020/01/21 03:25:55;;;;;;;7.4;4.4;;;;;;;;;;;;;
2020/01/21 03:28:22;;;;;;;7.4;4.3;;;;;;;;;;;;;
2020/01/21 03:30:46;;;;;;;8.6;4.1;;;;;;;;;;;;;
2020/01/21 03:33:11;;;;;;;9.1;4.6;;;;;;;;;;;;;
2020/01/21 03:35:39;;;;;;;9.3;4.8;;;;;;;;;;;;;
2020/01/21 03:38:05;;;;;;;8.2;4.5;;;;;;;;;;;;;
2020/01/21 03:42:51;;;;;;;9.8;3.8;;;;;;;;;;;;;
2020/01/21 03:45:16;;;;;;;7.6;3.9;;;;;;;;;;;;;
2020/01/21 03:47:41;;;;;;;8.3;4;;;;;;;;;;;;;
2020/01/21 03:50:40;;;;;;;6.4;3.4;;;;;;;;;;;;;
2020/01/21 03:52:31;;;;;;;8.1;4.1;;;;;;;;;;;;;
2020/01/21 03:54:56;;;;;;;8;4.4;;;;;;;;;;;;;
2020/01/21 03:57:21;;;;;;;11.3;4.8;;;;;;;;;;;;;
2020/01/21 03:59:46;;;;;;;9.5;5.1;;;;;;;;;;;;;
2020/01/21 04:02:30;;;;;;;9.8;5;;;;;;;-4.63;79.99609;958.4441;;;;
2020/01/21 04:04:55;;;;;;;9.6;4.8;;;;;;;-4.54;79.19629;958.5897;;;;
2020/01/21 04:07:20;;;;;;;9.5;4.5;;;;;;;-4.73;79.56934;958.5823;;;;
2020/01/21 04:09:45;;;;;;;9.7;4.7;;;;;;;-4.76;79.9707;958.574;;;;
2020/01/21 04:12:10;;;;;;;9.2;4.5;;;;;;;-4.83;80.08887;958.6289;;;;
2020/01/21 04:14:35;;;;;;;15;6.8;;;;;;;-4.85;80.22852;958.6248;;;;
2020/01/21 04:17:00;;;;;;;14.6;8;;;;;;;-4.83;79.95605;958.6475;;;;
2020/01/21 04:19:25;;;;;;;19.8;10.8;;;;;;;-4.75;79.61035;958.5782;;;;
2020/01/21 04:21:50;;;;;;;20.3;10.1;;;;;;;-4.85;80.29395;958.5938;;;;
2020/01/21 04:24:30;;;;;;;17.2;9.3;;;;;;;-4.87;79.48535;958.6342;;;;
2020/01/21 04:26:41;;;;;;;12.5;7.2;;;;;;;-5.04;79.21387;958.6705;;;;
2020/01/21 04:29:06;;;;;;;12.6;6.3;;;;;;;-5.18;78.45996;958.7122;;;;
2020/01/21 04:31:31;;;;;;;11.9;6.4;;;;;;;-5.26;78.58789;958.6897;;;;
2020/01/21 04:33:56;;;;;;;12.5;6.9;;;;;;;-5.34;79.70703;958.6308;;;;
2020/01/21 04:36:21;;;;;;;12;6.2;;;;;;;-5.51;81.64258;958.7361;;;;
2020/01/21 04:38:46;;;;;;;10.1;5.8;;;;;;;-5.57;82.43262;958.75;;;;
2020/01/21 04:41:11;;;;;;;10;5.4;;;;;;;-5.5;83.19434;958.8002;;;;
2020/01/21 04:43:36;;;;;;;11.3;5.2;;;;;;;-5.36;83.375;958.7275;;;;
2020/01/21 04:46:02;;;;;;;10.3;5.4;;;;;;;-5.33;82.80859;958.7353;;;;
2020/01/21 04:48:27;;;;;;;8.5;5.1;;;;;;;-5.19;81.97949;958.7706;;;;
2020/01/21 04:50:52;;;;;;;10;5.7;;;;;;;-5.16;81.21484;958.7385;;;;
2020/01/21 04:53:17;;;;;;;12;5.6;;;;;;;-5.2;81.00977;958.7117;;;;
2020/01/21 04:55:42;;;;;;;10.8;5.6;;;;;;;-5.25;81.10938;958.6964;;;;
2020/01/21 04:58:14;;;;;;;8.6;5.3;;;;;;;-5.32;81.43555;958.743;;;;
2020/01/21 05:00:32;;;;;;;10.2;5.2;;;;;;;-5.34;81.59766;958.6509;;;;
2020/01/21 05:02:57;;;;;;;9.4;4.8;;;;;;;-5.34;81.46484;958.6442;;;;
2020/01/21 05:05:23;;;;;;;10.9;5.2;;;;;;;-5.25;81.39453;958.6891;;;;
2020/01/21 05:07:48;;;;;;;8.7;5.1;;;;;;;-5.24;81.48438;958.644;;;;
2020/01/21 05:10:13;;;;;;;9.1;4.7;;;;;;;-5.13;80.87891;958.7405;;;;
2020/01/21 05:12:38;;;;;;;9.6;5.9;;;;;;;-5.14;81.35156;958.7581;;;;
2020/01/21 05:15:03;;;;;;;12.5;7;;;;;;;-5.09;80.85254;958.6354;;;;
2020/01/21 05:17:28;;;;;;;14.3;7.9;;;;;;;-5.15;80.77637;958.6961;;;;
2020/01/21 05:19:53;;;;;;;12.2;7.7;;;;;;;-5.18;80.91211;958.6713;;;;
2020/01/21 05:22:18;;;;;;;16.3;9;;;;;;;-5.39;81.7207;958.6671;;;;
2020/01/21 05:24:43;;;;;;;13.9;9.4;;;;;;;-5.45;82.28906;958.7491;;;;
2020/01/21 05:27:10;;;;;;;11.6;6.7;;;;;;;-5.41;82.49805;958.7065;;;;
2020/01/21 05:29:34;;;;;;;10.1;6.6;;;;;;;-5.41;82.20996;958.6103;;;;
2020/01/21 05:32:03;;;;;;;9.4;5.5;;;;;;;-5.45;82.44434;958.7236;;;;
2020/01/21 05:34:24;;;;;;;8.3;6.1;;;;;;;-5.5;82.47754;958.675;;;;
2020/01/21 05:36:49;;;;;;;10;6.3;;;;;;;-5.59;82.58105;958.6766;;;;
2020/01/21 05:39:14;;;;;;;11.6;6.5;;;;;;;-5.75;83.39453;958.6964;;;;
2020/01/21 05:41:39;;;;;;;12.6;7.4;;;;;;;-5.61;83.43457;958.6174;;;;
2020/01/21 05:46:39;;;;;;;12.7;7.7;;;;;;;;;;;;;
2020/01/21 05:48:54;;;;;;;14.5;7.7;;;;;;;;;;;;;
2020/01/21 05:51:19;;;;;;;12.8;7.2;;;;;;;;;;;;;
2020/01/21 05:53:45;;;;;;;16.1;8.5;;;;;;;;;;;;;
2020/01/21 05:56:10;;;;;;;14.5;8.4;;;;;;;;;;;;;
2020/01/21 05:58:35;;;;;;;18.1;9.8;;;;;;;;;;;;;
2020/01/21 06:01:00;;;;;;;16.3;8.7;;;;;;;;;;;;;
2020/01/21 06:03:25;;;;;;;15.6;7.5;;;;;;;;;;;;;
2020/01/21 06:05:50;;;;;;;15;7.5;;;;;;;;;;;;;
2020/01/21 06:08:15;;;;;;;13.9;7.6;;;;;;;;;;;;;
2020/01/21 06:10:40;;;;;;;12.1;7.2;;;;;;;;;;;;;
2020/01/21 06:13:05;;;;;;;15.9;7.6;;;;;;;;;;;;;
2020/01/21 06:15:31;;;;;;;14.4;8.6;;;;;;;;;;;;;
2020/01/21 06:17:56;;;;;;;14.3;9.4;;;;;;;;;;;;;
2020/01/21 06:20:21;;;;;;;14.7;9;;;;;;;;;;;;;
2020/01/21 06:22:46;;;;;;;14.3;8.8;;;;;;;;;;;;;
2020/01/21 06:25:15;;;;;;;13.5;9;;;;;;;;;;;;;
2020/01/21 06:27:40;;;;;;;14.3;9.2;;;;;;;;;;;;;
2020/01/21 06:30:05;;;;;;;15.5;8.4;;;;;;;;;;;;;
2020/01/21 06:32:30;;;;;;;14.1;8.8;;;;;;;;;;;;;
2020/01/21 06:34:55;;;;;;;16.7;10.7;;;;;;;;;;;;;
2020/01/21 06:37:20;;;;;;;17.6;11.6;;;;;;;;;;;;;
2020/01/21 06:39:45;;;;;;;21.9;14.1;;;;;;;;;;;;;
2020/01/21 06:42:10;;;;;;;16.9;9.6;;;;;;;;;;;;;
2020/01/21 06:44:36;;;;;;;12.5;8.2;;;;;;;;;;;;;
2020/01/21 06:47:01;;;;;;;9.9;6.6;;;;;;;;;;;;;
2020/01/21 06:49:26;;;;;;;12.3;7.2;;;;;;;;;;;;;
2020/01/21 06:51:51;;;;;;;11.7;6.5;;;;;;;;;;;;;
2020/01/21 06:54:16;;;;;;;9.2;5.9;;;;;;;;;;;;;
2020/01/21 06:56:41;;;;;;;9.8;5.4;;;;;;;;;;;;;
2020/01/21 06:59:06;;;;;;;10.8;6;;;;;;;;;;;;;
2020/01/21 07:01:32;;;;;;;10.4;6;;;;;;;;;;;;;
2020/01/21 07:03:57;;;;;;;8;4.9;;;;;;;;;;;;;
2020/01/21 07:06:22;;;;;;;9;4.9;;;;;;;;;;;;;
2020/01/21 07:08:47;;;;;;;8.9;6;;;;;;;;;;;;;
2020/01/21 07:11:12;;;;;;;12.9;8;;;;;;;;;;;;;
2020/01/21 07:13:37;;;;;;;14.9;8.3;;;;;;;;;;;;;
2020/01/21 07:16:02;;;;;;;18.9;9.3;;;;;;;;;;;;;
2020/01/21 07:18:27;;;;;;;15;8.5;;;;;;;;;;;;;
2020/01/21 07:20:52;;;;;;;13.3;8.6;;;;;;;;;;;;;
2020/01/21 07:23:17;;;;;;;14.2;8.8;;;;;;;;;;;;;
2020/01/21 07:25:42;;;;;;;14.9;10.4;;;;;;;;;;;;;
2020/01/21 07:28:07;;;;;;;15.2;10.3;;;;;;;;;;;;;
2020/01/21 07:30:32;;;;;;;11;8.2;;;;;;;;;;;;;
2020/01/21 07:32:58;;;;;;;13.1;8.7;;;;;;;;;;;;;
2020/01/21 07:35:23;;;;;;;12.5;8.7;;;;;;;;;;;;;
2020/01/21 07:37:48;;;;;;;9.8;6.6;;;;;;;;;;;;;
2020/01/21 07:40:13;;;;;;;10.3;6.6;;;;;;;;;;;;;
2020/01/21 07:42:38;;;;;;;9.8;6.1;;;;;;;;;;;;;
2020/01/21 07:45:03;;;;;;;9.5;6.2;;;;;;;;;;;;;
2020/01/21 07:47:28;;;;;;;13.7;8.5;;;;;;;;;;;;;
2020/01/21 07:49:53;;;;;;;13.4;9.8;;;;;;;;;;;;;
2020/01/21 07:52:19;;;;;;;12.4;9.5;;;;;;;;;;;;;
2020/01/21 07:54:44;;;;;;;9.9;7.1;;;;;;;;;;;;;
2020/01/21 07:57:09;;;;;;;10.2;6.8;;;;;;;;;;;;;
2020/01/21 07:59:34;;;;;;;10.5;6.4;;;;;;;;;;;;;
2020/01/21 08:02:17;;;;;;;14.2;6.1;;;;;;;;;;;;;
2020/01/21 08:04:25;;;;;;;10.6;6.5;;;;;;;;;;;;;
2020/01/21 08:09:14;;;;;;;10.1;6.1;;;;;;;;;;;;;
2020/01/21 08:11:44;;;;;;;11.2;8.8;;;;;;;;;;;;;
2020/01/21 08:14:12;;;;;;;15.6;12;;;;;;;;;;;;;
2020/01/21 08:16:33;;;;;;;20.1;13.9;;;;;;;;;;;;;
2020/01/21 08:18:55;;;;;;;21.8;14.3;;;;;;;;;;;;;
2020/01/21 08:21:20;;;;;;;14.4;11;;;;;;;;;;;;;
2020/01/21 08:26:12;;;;;;;17;11.5;;;;;;;;;;;;;
2020/01/21 08:28:37;;;;;;;13.4;10.4;;;;;;;;;;;;;
2020/01/21 08:31:00;;;;;;;12.8;8.9;;;;;;;;;;;;;
2020/01/21 08:38:17;;;;;;;30.9;20.2;;;;;;;;;;;;;
2020/01/21 08:40:42;;;;;;;26.5;16.9;;;;;;;;;;;;;
2020/01/21 08:43:07;;;;;;;18.1;11.2;;;;;;;;;;;;;
2020/01/21 08:48:01;;;;;;;18.3;10.7;;;;;;;;;;;;;
2020/01/21 08:52:48;;;;;;;9;6;;;;;;;;;;;;;
2020/01/21 08:55:13;;;;;;;14.5;8.8;;;;;;;;;;;;;
2020/01/21 08:57:38;;;;;;;17.7;10.8;;;;;;;;;;;;;
2020/01/21 09:00:03;;;;;;;16.6;11.4;;;;;;;;;;;;;
2020/01/21 09:02:28;;;;;;;19.8;11.5;;;;;;;;;;;;;
2020/01/21 09:04:53;;;;;;;19.4;10.3;;;;;;;;;;;;;
2020/01/21 09:07:18;;;;;;;18.9;10.3;;;;;;;;;;;;;
2020/01/21 09:09:43;;;;;;;13;9;;;;;;;;;;;;;
2020/01/21 09:12:08;;;;;;;20.4;12.1;;;;;;;;;;;;;
2020/01/21 09:14:33;;;;;;;20.9;12.6;;;;;;;;;;;;;
2020/01/21 09:16:59;;;;;;;15.5;10.1;;;;;;;;;;;;;
2020/01/21 09:19:24;;;;;;;12.9;7.8;;;;;;;;;;;;;
2020/01/21 09:21:49;;;;;;;13.4;7.6;;;;;;;;;;;;;
2020/01/21 09:24:15;;;;;;;11.8;7.1;;;;;;;;;;;;;
2020/01/21 09:26:40;;;;;;;9.6;5.4;;;;;;;;;;;;;
2020/01/21 09:29:05;;;;;;;13.4;8.4;;;;;;;;;;;;;
2020/01/21 09:31:44;;;;;;;13.6;8.9;;;;;;;;;;;;;
2020/01/21 09:34:20;;;;;;;18.1;10.4;;;;;;;;;;;;;
2020/01/21 09:36:22;;;;;;;21.3;9.3;;;;;;;;;;;;;
2020/01/21 09:39:06;;;;;;;17.4;9.7;;;;;;;;;;;;;
2020/01/21 09:41:28;;;;;;;14.4;10.2;;;;;;;;;;;;;
2020/01/21 09:43:35;;;;;;;16.6;10;;;;;;;;;;;;;
2020/01/21 09:46:00;;;;;;;19.1;11.7;;;;;;;;;;;;;
2020/01/21 09:48:26;;;;;;;23;13.5;;;;;;;;;;;;;
2020/01/21 09:50:51;;;;;;;20;13.8;;;;;;;;;;;;;
2020/01/21 09:53:16;;;;;;;17.9;12.2;;;;;;;;;;;;;
2020/01/21 09:55:41;;;;;;;22.1;13.5;;;;;;;;;;;;;
2020/01/21 09:58:07;;;;;;;19.2;13.9;;;;;;;;;;;;;
2020/01/21 10:00:32;;;;;;;20.7;13.5;;;;;;;;;;;;;
2020/01/21 10:02:57;;;;;;;24.3;14.8;;;;;;;;;;;;;
2020/01/21 10:05:22;;;;;;;23.4;13.8;;;;;;;;;;;;;
2020/01/21 10:07:47;;;;;;;24.3;16.1;;;;;;;;;;;;;
2020/01/21 10:10:12;;;;;;;24.1;17.1;;;;;;;;;;;;;
2020/01/21 10:12:37;;;;;;;28;17.9;;;;;;;;;;;;;
2020/01/21 10:15:02;;;;;;;25.5;16.7;;;;;;;;;;;;;
2020/01/21 10:17:28;;;;;;;24.6;16.6;;;;;;;;;;;;;
2020/01/21 10:19:52;;;;;;;25.8;15.9;;;;;;;;;;;;;
2020/01/21 10:22:18;;;;;;;26.8;17.9;;;;;;;;;;;;;
2020/01/21 10:24:43;;;;;;;27.1;17.6;;;;;;;;;;;;;
2020/01/21 10:27:08;;;;;;;25.7;17.4;;;;;;;;;;;;;
2020/01/21 10:29:33;;;;;;;24.3;17.2;;;;;;;;;;;;;
2020/01/21 10:36:48;;;;;;;24.5;16.8;;;;;;;;;;;;;
2020/01/21 10:39:13;;;;;;;22.9;15.7;;;;;;;;;;;;;
2020/01/21 10:41:38;;;;;;;21.3;14.3;;;;;;;;;;;;;
2020/01/21 10:44:03;;;;;;;20.4;13.9;;;;;;;;;;;;;
2020/01/21 10:46:29;;;;;;;20.5;14.6;;;;;;;;;;;;;
2020/01/21 10:48:54;;;;;;;17.7;12.3;;;;;;;;;;;;;
2020/01/21 10:51:19;;;;;;;16.8;11.9;;;;;;;;;;;;;
2020/01/21 10:53:44;;;;;;;19.4;13.2;;;;;;;;;;;;;
2020/01/21 10:56:09;;;;;;;18.7;12.9;;;;;;;;;;;;;
2020/01/21 10:58:34;;;;;;;20.2;14;;;;;;;;;;;;;
2020/01/21 11:01:00;;;;;;;22.3;14.3;;;;;;;;;;;;;
2020/01/21 11:03:25;;;;;;;20.6;14.4;;;;;;;;;;;;;
2020/01/21 11:05:50;;;;;;;20.8;14.6;;;;;;;;;;;;;
2020/01/21 11:08:15;;;;;;;24.4;15.8;;;;;;;;;;;;;
2020/01/21 11:10:40;;;;;;;19.5;13.8;;;;;;;;;;;;;
2020/01/21 11:13:06;;;;;;;22.1;15.1;;;;;;;;;;;;;
2020/01/21 11:15:31;;;;;;;21.9;14.5;;;;;;;;;;;;;
2020/01/21 11:17:56;;;;;;;22.9;15.8;;;;;;;;;;;;;
2020/01/21 11:20:21;;;;;;;22;14.8;;;;;;;;;;;;;
2020/01/21 11:22:52;;;;;;;23.5;15.2;;;;;;;;;;;;;
2020/01/21 11:27:37;;;;;;;22.6;14.1;;;;;;;;;;;;;
2020/01/21 11:32:33;;;;;;;23.5;15.6;;;;;;;;;;;;;
2020/01/21 11:34:53;;;;;;;25.8;16.9;;;;;;;;;;;;;
2020/01/21 11:37:18;;;;;;;26.7;17.1;;;;;;;;;;;;;
2020/01/21 11:39:51;;;;;;;26.8;17;;;;;;;;;;;;;
2020/01/21 11:42:18;;;;;;;23.6;15.5;;;;;;;;;;;;;
2020/01/21 11:44:36;;;;;;;21.5;15.4;;;;;;;;;;;;;
2020/01/21 11:46:57;;;;;;;23.4;15.6;;;;;;;;;;;;;
2020/01/21 11:49:22;;;;;;;22.5;13.6;;;;;;;;;;;;;
2020/01/21 11:51:47;;;;;;;19.8;14.1;;;;;;;;;;;;;
2020/01/21 11:54:12;;;;;;;20.7;13.8;;;;;;;;;;;;;
2020/01/21 11:56:37;;;;;;;20.1;14.3;;;;;;;;;;;;;
2020/01/21 11:59:03;;;;;;;21.3;14.6;;;;;;;;;;;;;
2020/01/21 12:01:27;;;;;;;20.4;14.9;;;;;;;;;;;;;
2020/01/21 12:03:53;;;;;;;18.2;14.8;;;;;;;;;;;;;
2020/01/21 12:06:18;;;;;;;20.4;15.3;;;;;;;;;;;;;
2020/01/21 12:08:43;;;;;;;19.8;14.8;;;;;;;;;;;;;
2020/01/21 12:11:08;;;;;;;17.9;14.2;;;;;;;;;;;;;
2020/01/21 12:13:34;;;;;;;18;13.4;;;;;;;;;;;;;
2020/01/21 12:15:59;;;;;;;16.5;13.6;;;;;;;;;;;;;
2020/01/21 12:18:24;;;;;;;17;12.8;;;;;;;;;;;;;
2020/01/21 12:23:14;;;;;;;16.1;12.6;;;;;;;;;;;;;
2020/01/21 12:25:39;;;;;;;16.2;12.6;;;;;;;;;;;;;
2020/01/21 12:28:04;;;;;;;14.9;12.2;;;;;;;;;;;;;
2020/01/21 12:30:30;;;;;;;21.3;12.2;;;;;;;;;;;;;
2020/01/21 12:32:56;;;;;;;16.7;12.1;;;;;;;;;;;;;
2020/01/21 12:35:21;;;;;;;20.6;14.1;;;;;;;;;;;;;
2020/01/21 12:37:46;;;;;;;17.3;13.2;;;;;;;;;;;;;
2020/01/21 12:40:11;;;;;;;18.3;12.5;;;;;;;;;;;;;
2020/01/21 12:42:36;;;;;;;16;12.3;;;;;;;;;;;;;
2020/01/21 12:45:01;;;;;;;16.2;12.3;;;;;;;;;;;;;
2020/01/21 12:47:26;;;;;;;17.7;11.7;;;;;;;;;;;;;
2020/01/21 12:49:51;;;;;;;16.5;11.3;;;;;;;;;;;;;
2020/01/21 12:52:17;;;;;;;16.3;11.8;;;;;;;;;;;;;
2020/01/21 12:54:42;;;;;;;17.5;12.1;;;;;;;;;;;;;
2020/01/21 12:57:07;;;;;;;17.2;12.2;;;;;;;;;;;;;
2020/01/21 12:59:32;;;;;;;17.1;11.6;;;;;;;;;;;;;
2020/01/21 13:01:57;;;;;;;19;12.6;;;;;;;;;;;;;
2020/01/21 13:04:22;;;;;;;17.1;12.4;;;;;;;;;;;;;
2020/01/21 13:06:47;;;;;;;17.6;12.3;;;;;;;;;;;;;
2020/01/21 13:09:12;;;;;;;16.1;11.9;;;;;;;;;;;;;
2020/01/21 13:11:37;;;;;;;16.4;11.7;;;;;;;;;;;;;
2020/01/21 13:14:20;;;;;;;15.6;12.1;;;;;;;;;;;;;
2020/01/21 13:16:54;;;;;;;17.6;12;;;;;;;;;;;;;
2020/01/21 13:19:03;;;;;;;17.6;11.9;;;;;;;;;;;;;
2020/01/21 13:21:18;;;;;;;16.4;12.1;;;;;;;;;;;;;
2020/01/21 13:23:43;;;;;;;15.8;12.2;;;;;;;;;;;;;
2020/01/21 13:26:08;;;;;;;15.9;12.9;;;;;;;;;;;;;
2020/01/21 13:28:33;;;;;;;16.6;12.5;;;;;;;;;;;;;
2020/01/21 13:30:58;;;;;;;16.6;12.7;;;;;;;;;;;;;
2020/01/21 13:33:23;;;;;;;15.9;12.5;;;;;;;;;;;;;
2020/01/21 13:35:48;;;;;;;17.3;12.9;;;;;;;;;;;;;
2020/01/21 13:38:14;;;;;;;19.2;13.3;;;;;;;;;;;;;
2020/01/21 13:40:39;;;;;;;17.4;13.4;;;;;;;;;;;;;
2020/01/21 13:43:04;;;;;;;18.9;13.6;;;;;;;;;;;;;
2020/01/21 13:45:29;;;;;;;19.4;13.3;;;;;;;;;;;;;
2020/01/21 13:47:54;;;;;;;16.3;12.8;;;;;;;;;;;;;
2020/01/21 13:50:19;;;;;;;18;12.9;;;;;;;;;;;;;
2020/01/21 13:52:44;;;;;;;17.2;13.1;;;;;;;;;;;;;
2020/01/21 13:55:09;;;;;;;16.3;12.8;;;;;;;;;;;;;
2020/01/21 13:57:35;;;;;;;17.6;12.9;;;;;;;;;;;;;
2020/01/21 14:00:00;;;;;;;17;13;;;;;;;;;;;;;
2020/01/21 14:05:09;;;;;;;16.4;11.9;;;;;;;;;;;;;
2020/01/21 14:07:15;;;;;;;16.5;12.2;;;;;;;;;;;;;
2020/01/21 14:09:41;;;;;;;15.2;12.8;;;;;;;;;;;;;
2020/01/21 14:12:06;;;;;;;17.3;13.1;;;;;;;;;;;;;
2020/01/21 14:14:31;;;;;;;16.8;14.1;;;;;;;;;;;;;
2020/01/21 14:16:56;;;;;;;16.6;13.1;;;;;;;;;;;;;
2020/01/21 14:19:21;;;;;;;18.4;13;;;;;;;;;;;;;
2020/01/21 14:21:46;;;;;;;16.5;12.6;;;;;;;;;;;;;
2020/01/21 14:24:11;;;;;;;17;12.9;;;;;;;;;;;;;
2020/01/21 14:26:36;;;;;;;16.5;12.7;;;;;;;;;;;;;
2020/01/21 14:29:02;;;;;;;16.7;13.1;;;;;;;;;;;;;
2020/01/21 14:31:27;;;;;;;17.4;13.7;;;;;;;;;;;;;
2020/01/21 14:33:52;;;;;;;16.3;13.2;;;;;;;;;;;;;
2020/01/21 14:36:17;;;;;;;18.3;14;;;;;;;;;;;;;
2020/01/21 14:38:42;;;;;;;18.4;13.8;;;;;;;;;;;;;
2020/01/21 14:41:07;;;;;;;20;14.3;;;;;;;;;;;;;
2020/01/21 14:43:33;;;;;;;19.6;14.7;;;;;;;;;;;;;
2020/01/21 14:45:57;;;;;;;19;14.1;;;;;;;;;;;;;
2020/01/21 14:48:22;;;;;;;19.3;14.5;;;;;;;;;;;;;
2020/01/21 14:50:47;;;;;;;19.7;14.8;;;;;;;;;;;;;
2020/01/21 14:53:13;;;;;;;20.6;14.9;;;;;;;;;;;;;
2020/01/21 14:55:38;;;;;;;19;13.4;;;;;;;;;;;;;
2020/01/21 14:58:03;;;;;;;18.7;14.4;;;;;;;;;;;;;
2020/01/21 15:00:28;;;;;;;19.8;15;;;;;;;;;;;;;
2020/01/21 15:02:54;;;;;;;22;15.2;;;;;;;;;;;;;
2020/01/21 15:05:18;;;;;;;23.4;17;;;;;;;;;;;;;
2020/01/21 15:10:15;;;;;;;24.7;17.9;;;;;;;;;;;;;
2020/01/21 15:13:02;;;;;;;23;17.3;;;;;;;;;;;;;
2020/01/21 15:15:00;;;;;;;24.2;17.7;;;;;;;;;;;;;
2020/01/21 15:17:24;;;;;;;25.3;18.5;;;;;;;;;;;;;
2020/01/21 15:19:49;;;;;;;25.8;17.8;;;;;;;;;;;;;
2020/01/21 15:22:15;;;;;;;26;18;;;;;;;;;;;;;
2020/01/21 15:24:40;;;;;;;27.9;19.1;;;;;;;;;;;;;
2020/01/21 15:27:05;;;;;;;30.1;20.8;;;;;;;;;;;;;
2020/01/21 15:29:30;;;;;;;26.3;19.3;;;;;;;;;;;;;
2020/01/21 15:31:55;;;;;;;27.8;20.2;;;;;;;;;;;;;
2020/01/21 15:34:20;;;;;;;32.1;20.8;;;;;;;;;;;;;
2020/01/21 15:36:46;;;;;;;26;19.5;;;;;;;;;;;;;
2020/01/21 15:39:11;;;;;;;29.7;19.8;;;;;;;;;;;;;
2020/01/21 15:41:36;;;;;;;30.2;21.2;;;;;;;;;;;;;
2020/01/21 15:44:01;;;;;;;32.8;22.3;;;;;;;;;;;;;
2020/01/21 15:46:26;;;;;;;32.3;23.2;;;;;;;;;;;;;
2020/01/21 15:48:51;;;;;;;48.4;30;;;;;;;;;;;;;
2020/01/21 15:51:16;;;;;;;32.2;22.4;;;;;;;;;;;;;
2020/01/21 15:53:42;;;;;;;32.7;22;;;;;;;;;;;;;
2020/01/21 15:56:06;;;;;;;32.3;20.3;;;;;;;;;;;;;
2020/01/21 15:58:32;;;;;;;30.3;21;;;;;;;;;;;;;
2020/01/21 16:00:57;;;;;;;34.7;21.7;;;;;;;;;;;;;
2020/01/21 16:03:22;;;;;;;32.8;22.3;;;;;;;;;;;;;
2020/01/21 16:05:47;;;;;;;40.2;26.7;;;;;;;;;;;;;
2020/01/21 16:08:12;;;;;;;37.1;24.5;;;;;;;;;;;;;
2020/01/21 16:10:37;;;;;;;37.6;25.4;;;;;;;;;;;;;
2020/01/21 16:13:03;;;;;;;38.4;25.5;;;;;;;;;;;;;
2020/01/21 16:15:37;;;;;;;35;23.6;;;;;;;;;;;;;
2020/01/21 16:18:31;;;;;;;34;22.9;;;;;;;;;;;;;
2020/01/21 16:20:18;;;;;;;35;23.7;;;;;;;;;;;;;
2020/01/21 16:22:43;;;;;;;34.2;23.8;;;;;;;;;;;;;
2020/01/21 16:25:08;;;;;;;35.5;24.8;;;;;;;;;;;;;
2020/01/21 16:27:33;;;;;;;37.3;26;;;;;;;;;;;;;
2020/01/21 16:29:58;;;;;;;38.9;26.2;;;;;;;;;;;;;
2020/01/21 16:32:23;;;;;;;42.2;28.2;;;;;;;;;;;;;
2020/01/21 16:34:49;;;;;;;40;27.4;;;;;;;;;;;;;
2020/01/21 16:37:14;;;;;;;40.2;27.9;;;;;;;;;;;;;
2020/01/21 16:39:40;;;;;;;40.3;28.7;;;;;;;;;;;;;
2020/01/21 16:42:05;;;;;;;38.6;27.1;;;;;;;;;;;;;
2020/01/21 16:44:30;;;;;;;41.8;29.5;;;;;;;;;;;;;
2020/01/21 16:46:55;;;;;;;48;32.1;;;;;;;;;;;;;
2020/01/21 16:49:20;;;;;;;47.7;33.5;;;;;;;;;;;;;
2020/01/21 16:51:45;;;;;;;44.4;30.8;;;;;;;;;;;;;
2020/01/21 16:54:10;;;;;;;40.7;30.2;;;;;;;;;;;;;
2020/01/21 16:56:35;;;;;;;69.4;50.5;;;;;;;;;;;;;
2020/01/21 16:59:00;;;;;;;81.1;56.3;;;;;;;;;;;;;
2020/01/21 17:01:25;;;;;;;44.6;29.4;;;;;;;;;;;;;
2020/01/21 17:03:51;;;;;;;51.5;34.9;;;;;;;;;;;;;
2020/01/21 17:06:16;;;;;;;46.5;31.8;;;;;;;;;;;;;
2020/01/21 17:08:41;;;;;;;45.6;31.4;;;;;;;;;;;;;
2020/01/21 17:11:06;;;;;;;49;33.6;;;;;;;;;;;;;
2020/01/21 17:13:31;;;;;;;49.9;33.4;;;;;;;;;;;;;
2020/01/21 17:15:56;;;;;;;50.4;35;;;;;;;;;;;;;
2020/01/21 17:18:22;;;;;;;56.9;37.5;;;;;;;;;;;;;
2020/01/21 17:20:47;;;;;;;64.2;40.2;;;;;;;;;;;;;
2020/01/21 17:23:12;;;;;;;60.8;39.7;;;;;;;;;;;;;
2020/01/21 17:25:37;;;;;;;59.3;39.3;;;;;;;;;;;;;
2020/01/21 17:28:02;;;;;;;61.6;40.1;;;;;;;;;;;;;
2020/01/21 17:30:27;;;;;;;57.6;39;;;;;;;;;;;;;
2020/01/21 17:32:52;;;;;;;59.3;39.6;;;;;;;;;;;;;
2020/01/21 17:35:18;;;;;;;57.5;39;;;;;;;;;;;;;
2020/01/21 17:37:43;;;;;;;67.4;42;;;;;;;;;;;;;
2020/01/21 17:40:09;;;;;;;62.4;39.4;;;;;;;;;;;;;
2020/01/21 17:42:33;;;;;;;59.8;38.3;;;;;;;;;;;;;
2020/01/21 17:44:58;;;;;;;581.8;282.3;;;;;;;;;;;;;
2020/01/21 17:47:40;;;;;;;385;181.6;;;;;;;;;;;;;
2020/01/21 17:50:14;;;;;;;236.6;116.2;;;;;;;;;;;;;
2020/01/21 17:54:38;;;;;;;87.3;54.1;;;;;;;;;;;;;
2020/01/21 17:57:06;;;;;;;96.5;59.3;;;;;;;;;;;;;
2020/01/21 17:59:30;;;;;;;76.4;49.5;;;;;;;;;;;;;
2020/01/21 18:01:54;;;;;;;70.9;46.2;;;;;;;;;;;;;
2020/01/21 18:04:19;;;;;;;58.2;38.9;;;;;;;;;;;;;
2020/01/21 18:06:44;;;;;;;75.6;49.9;;;;;;;;;;;;;
2020/01/21 18:09:09;;;;;;;77.2;48;;;;;;;;;;;;;
2020/01/21 18:11:34;;;;;;;53.9;35.8;;;;;;;;;;;;;
2020/01/21 18:13:59;;;;;;;69;43.2;;;;;;;;;;;;;
2020/01/21 18:16:24;;;;;;;70.3;45.4;;;;;;;;;;;;;
2020/01/21 18:18:49;;;;;;;63.8;41.2;;;;;;;;;;;;;
2020/01/21 18:21:15;;;;;;;64.5;43.4;;;;;;;;;;;;;
2020/01/21 18:23:40;;;;;;;67.6;46.5;;;;;;;;;;;;;
2020/01/21 18:26:05;;;;;;;68.7;44.2;;;;;;;;;;;;;
2020/01/21 18:28:30;;;;;;;64.8;42.2;;;;;;;;;;;;;
2020/01/21 18:30:55;;;;;;;69.2;43.4;;;;;;;;;;;;;
2020/01/21 18:33:20;;;;;;;58;40.3;;;;;;;;;;;;;
2020/01/21 18:35:45;;;;;;;52;36.1;;;;;;;;;;;;;
2020/01/21 18:38:10;;;;;;;55.8;37.8;;;;;;;;;;;;;
2020/01/21 18:40:35;;;;;;;63.3;40.1;;;;;;;;;;;;;
2020/01/21 18:43:01;;;;;;;76.8;46.1;;;;;;;;;;;;;
2020/01/21 18:45:26;;;;;;;68.3;43.8;;;;;;;;;;;;;
2020/01/21 18:47:53;;;;;;;62.9;41.2;;;;;;;;;;;;;
2020/01/21 18:50:39;;;;;;;64.2;42.3;;;;;;;;;;;;;
2020/01/21 18:52:59;;;;;;;64;41.8;;;;;;;;;;;;;
2020/01/21 18:55:08;;;;;;;69.3;44.9;;;;;;;;;;;;;
2020/01/21 18:57:31;;;;;;;91.8;59.7;;;;;;;;;;;;;
2020/01/21 18:59:57;;;;;;;72.2;45.6;;;;;;;;;;;;;
2020/01/21 19:02:22;;;;;;;67.9;42.5;;;;;;;;;;;;;
2020/01/21 19:04:47;;;;;;;66.2;42;;;;;;;;;;;;;
2020/01/21 19:07:12;;;;;;;65.2;41.5;;;;;;;;;;;;;
2020/01/21 19:09:37;;;;;;;57.9;37.9;;;;;;;;;;;;;
2020/01/21 19:12:02;;;;;;;52;35.7;;;;;;;;;;;;;
2020/01/21 19:14:27;;;;;;;60.5;40.4;;;;;;;;;;;;;
2020/01/21 19:16:52;;;;;;;61.5;40.4;;;;;;;;;;;;;
2020/01/21 19:19:17;;;;;;;61.3;40.8;;;;;;;;;;;;;
2020/01/21 19:21:43;;;;;;;64.1;42.1;;;;;;;;;;;;;
2020/01/21 19:24:08;;;;;;;64.7;42;;;;;;;;;;;;;
2020/01/21 19:26:33;;;;;;;65.8;42.8;;;;;;;;;;;;;
2020/01/21 19:28:58;;;;;;;66.7;43.7;;;;;;;;;;;;;
2020/01/21 19:31:23;;;;;;;69.7;43.9;;;;;;;;;;;;;
2020/01/21 19:33:48;;;;;;;67.1;42.9;;;;;;;;;;;;;
2020/01/21 19:36:13;;;;;;;61.7;41.2;;;;;;;;;;;;;
2020/01/21 19:38:46;;;;;;;61.3;40;;;;;;;;;;;;;
2020/01/21 19:41:04;;;;;;;66.1;43.3;;;;;;;;;;;;;
2020/01/21 19:43:29;;;;;;;73.2;46.3;;;;;;;;;;;;;
2020/01/21 19:45:54;;;;;;;82.8;52.4;;;;;;;;;;;;;
2020/01/21 19:48:19;;;;;;;86.5;54.7;;;;;;;;;;;;;
2020/01/21 19:50:44;;;;;;;66.5;45.1;;;;;;;;;;;;;
2020/01/21 19:53:09;;;;;;;55.3;37.5;;;;;;;;;;;;;
2020/01/21 19:55:34;;;;;;;65.4;42.5;;;;;;;;;;;;;
2020/01/21 19:58:00;;;;;;;59.4;39.7;;;;;;;;;;;;;
2020/01/21 20:00:25;;;;;;;49.1;32.5;;;;;;;;;;;;;